createdAt,value
2023-02-23T00:00:48.414Z,26.93
2023-02-23T00:04:59.664Z,26.80
2023-02-23T00:09:09.771Z,24.27
2023-02-23T00:13:18.425Z,23.37
2023-02-23T00:17:26.959Z,27.13
2023-02-23T00:21:35.753Z,26.23
2023-02-23T00:25:45.941Z,24.47
2023-02-23T00:29:54.665Z,29.37
2023-02-23T00:34:04.937Z,28.20
2023-02-23T00:38:13.957Z,29.77
2023-02-23T00:42:22.596Z,26.67
2023-02-23T00:46:31.922Z,25.50
2023-02-23T00:50:41.567Z,25.57
2023-02-23T00:54:51.406Z,27.40
2023-02-23T00:59:00.095Z,27.63
2023-02-23T01:03:08.816Z,26.63
2023-02-23T01:07:17.432Z,26.23
2023-02-23T01:11:30.801Z,26.90
2023-02-23T01:15:47.294Z,28.37
2023-02-23T01:19:55.910Z,26.67
2023-02-23T01:24:05.983Z,28.55
2023-02-23T01:28:14.601Z,27.57
2023-02-23T01:32:23.259Z,26.23
2023-02-23T01:36:37.281Z,27.50
2023-02-23T01:40:47.368Z,30.07
2023-02-23T01:45:19.813Z,24.70
2023-02-23T01:49:31.583Z,26.97
2023-02-23T01:53:43.338Z,26.77
2023-02-23T01:57:59.567Z,29.67
2023-02-23T02:02:08.150Z,24.97
2023-02-23T02:06:20.076Z,27.40
2023-02-23T02:10:43.998Z,24.83
2023-02-23T02:15:14.301Z,25.93
2023-02-23T02:19:46.894Z,24.80
2023-02-23T02:24:05.289Z,26.40
2023-02-23T02:28:40.942Z,26.50
2023-02-23T02:32:58.563Z,28.27
2023-02-23T02:37:40.274Z,26.50
2023-02-23T02:42:09.810Z,25.80
2023-02-23T02:46:24.055Z,25.50
2023-02-23T02:50:35.646Z,26.23
2023-02-23T02:54:47.785Z,24.80
2023-02-23T02:58:56.573Z,27.83
2023-02-23T03:03:23.452Z,28.17
2023-02-23T03:13:05.395Z,29.00
2023-02-23T03:18:00.002Z,29.10
2023-02-23T03:22:38.303Z,29.20
2023-02-23T03:27:10.300Z,26.03
2023-02-23T03:31:58.413Z,27.80
2023-02-23T03:36:30.945Z,24.07
2023-02-23T03:41:01.080Z,26.03
2023-02-23T03:45:48.232Z,25.77
2023-02-23T03:50:16.200Z,27.20
2023-02-23T03:55:06.585Z,30.47
2023-02-23T03:59:36.121Z,27.50
2023-02-23T04:04:15.154Z,26.53
2023-02-23T04:08:45.391Z,29.80
2023-02-23T04:13:17.082Z,27.60
2023-02-23T04:17:28.999Z,24.03
2023-02-23T04:21:37.626Z,26.30
2023-02-23T04:25:47.612Z,29.30
2023-02-23T04:29:56.290Z,25.93
2023-02-23T04:34:04.937Z,27.33
2023-02-23T04:38:32.899Z,26.50
2023-02-23T04:43:00.878Z,26.87
2023-02-23T04:47:09.626Z,28.00
2023-02-23T04:51:18.456Z,26.80
2023-02-23T04:55:28.099Z,26.00
2023-02-23T04:59:36.943Z,26.20
2023-02-23T05:03:45.583Z,27.50
2023-02-23T05:07:55.108Z,26.20
2023-02-23T05:12:03.949Z,23.40
2023-02-23T05:16:12.650Z,26.73
2023-02-23T05:20:21.408Z,27.10
2023-02-23T05:24:31.136Z,28.30
2023-02-23T05:28:41.881Z,29.93
2023-02-23T05:32:51.515Z,29.20
2023-02-23T05:37:00.146Z,30.40
2023-02-23T05:41:28.043Z,27.70
2023-02-23T05:45:38.145Z,28.47
2023-02-23T05:49:46.949Z,27.70
2023-02-23T05:53:55.805Z,28.13
2023-02-23T05:58:23.712Z,30.10
2023-02-23T06:02:32.558Z,27.87
2023-02-23T06:06:41.482Z,29.83
2023-02-23T06:10:50.700Z,32.03
2023-02-23T06:15:18.807Z,28.20
2023-02-23T06:19:29.321Z,32.87
2023-02-23T06:23:38.121Z,29.00
2023-02-23T06:28:07.552Z,30.43
2023-02-23T06:32:35.604Z,31.57
2023-02-23T06:36:44.241Z,27.97
2023-02-23T06:40:54.725Z,27.60
2023-02-23T06:45:03.948Z,27.40
2023-02-23T06:49:16.176Z,28.27
2023-02-23T06:53:25.118Z,28.07
2023-02-23T06:57:34.244Z,28.13
2023-02-23T07:01:44.867Z,27.50
2023-02-23T07:05:54.475Z,29.70
2023-02-23T07:10:05.043Z,27.87
2023-02-23T07:14:21.484Z,27.57
2023-02-23T07:18:24.156Z,28.80
2023-02-23T07:22:34.208Z,27.30
2023-02-23T07:26:44.531Z,28.30
2023-02-23T07:30:54.734Z,26.70
2023-02-23T07:35:03.828Z,26.17
2023-02-23T07:39:12.878Z,27.33
2023-02-23T07:43:22.637Z,24.90
2023-02-23T07:47:31.360Z,25.27
2023-02-23T07:51:40.965Z,27.27
2023-02-23T07:55:52.661Z,26.30
2023-02-23T08:00:01.925Z,24.90
2023-02-23T08:04:10.877Z,26.20
2023-02-23T08:08:19.444Z,26.70
2023-02-23T08:12:28.253Z,24.77
2023-02-23T08:16:36.880Z,22.90
2023-02-23T08:20:45.458Z,25.97
2023-02-23T08:24:54.278Z,23.83
2023-02-23T08:29:02.919Z,24.27
2023-02-23T08:33:11.461Z,22.30
2023-02-23T08:37:20.081Z,24.13
2023-02-23T08:41:29.012Z,21.03
2023-02-23T08:45:39.500Z,21.50
2023-02-23T08:49:48.306Z,18.77
2023-02-23T08:53:57.357Z,18.40
2023-02-23T08:58:07.676Z,19.93
2023-02-23T09:02:16.701Z,18.03
2023-02-23T09:06:26.367Z,20.03
2023-02-23T09:10:35.662Z,21.43
2023-02-23T09:14:44.227Z,21.20
2023-02-23T09:18:52.871Z,20.93
2023-02-23T09:23:01.552Z,20.57
2023-02-23T09:27:11.661Z,21.40
2023-02-23T09:31:23.926Z,22.40
2023-02-23T09:35:34.493Z,20.57
2023-02-23T09:39:43.640Z,18.93
2023-02-23T09:43:58.299Z,21.63
2023-02-23T09:48:27.204Z,21.27
2023-02-23T09:52:39.391Z,18.60
2023-02-23T09:56:51.196Z,16.97
2023-02-23T10:01:20.067Z,18.57
2023-02-23T10:05:33.051Z,21.40
2023-02-23T10:10:01.900Z,18.67
2023-02-23T10:14:37.829Z,18.20
2023-02-23T10:18:50.210Z,17.60
2023-02-23T10:23:19.675Z,17.30
2023-02-23T10:27:49.592Z,16.63
2023-02-23T10:32:01.250Z,15.20
2023-02-23T10:36:21.603Z,15.17
2023-02-23T10:40:32.974Z,13.57
2023-02-23T10:44:44.789Z,14.50
2023-02-23T10:48:57.051Z,14.93
2023-02-23T10:53:20.537Z,15.97
2023-02-23T10:57:32.401Z,14.20
2023-02-23T11:02:01.016Z,14.13
2023-02-23T11:05:56.058Z,15.23
2023-02-23T11:10:24.258Z,14.53
2023-02-23T11:14:33.774Z,15.87
2023-02-23T11:18:45.134Z,17.70
2023-02-23T11:22:55.718Z,14.30
2023-02-23T11:27:06.632Z,14.43
2023-02-23T11:31:22.069Z,14.57
2023-02-23T11:35:32.137Z,13.80
2023-02-23T11:39:55.586Z,11.50
2023-02-23T11:44:06.203Z,11.93
2023-02-23T11:48:20.876Z,13.00
2023-02-23T11:52:31.216Z,11.63
2023-02-23T11:56:39.779Z,12.97
2023-02-23T12:01:00.350Z,14.80
2023-02-23T12:05:12.468Z,12.47
2023-02-23T12:09:29.854Z,12.20
2023-02-23T12:13:51.026Z,12.03
2023-02-23T12:18:06.738Z,11.57
2023-02-23T12:22:18.625Z,13.23
2023-02-23T12:26:28.366Z,12.80
2023-02-23T12:31:00.970Z,12.10
2023-02-23T12:35:49.725Z,12.80
2023-02-23T12:40:01.542Z,12.30
2023-02-23T12:44:18.839Z,9.90
2023-02-23T12:48:48.797Z,10.90
2023-02-23T12:53:01.563Z,10.80
2023-02-23T12:57:19.401Z,12.53
2023-02-23T13:01:46.020Z,12.30
2023-02-23T13:06:03.434Z,11.20
2023-02-23T13:10:51.112Z,10.87
2023-02-23T13:15:24.846Z,11.97
2023-02-23T13:19:43.668Z,12.87
2023-02-23T13:24:19.670Z,11.53
2023-02-23T13:28:39.958Z,13.63
2023-02-23T13:32:49.484Z,12.10
2023-02-23T13:37:01.618Z,14.53
2023-02-23T13:41:35.848Z,13.63
2023-02-23T13:45:59.738Z,11.07
2023-02-23T13:50:17.280Z,13.43
2023-02-23T13:54:33.990Z,13.03
2023-02-23T13:58:48.250Z,11.90
2023-02-23T14:02:58.389Z,12.73
2023-02-23T14:07:16.668Z,15.20
2023-02-23T14:11:44.038Z,13.27
2023-02-23T14:16:11.983Z,15.90
2023-02-23T14:20:30.050Z,14.20
2023-02-23T14:24:37.190Z,15.67
2023-02-23T14:28:51.534Z,13.97
2023-02-23T14:33:13.203Z,14.20
2023-02-23T14:37:22.004Z,14.60
2023-02-23T14:41:33.561Z,13.00
2023-02-23T14:45:42.832Z,14.80
2023-02-23T14:50:04.392Z,11.70
2023-02-23T14:54:34.035Z,13.63
2023-02-23T14:58:42.920Z,11.27
2023-02-23T15:03:09.222Z,11.67
2023-02-23T15:07:22.451Z,13.57
2023-02-23T15:11:36.194Z,12.00
2023-02-23T15:15:47.321Z,11.13
2023-02-23T15:24:12.346Z,11.73
2023-02-23T15:28:29.709Z,11.43
2023-02-23T15:32:39.800Z,11.57
2023-02-23T15:37:08.157Z,11.53
2023-02-23T15:41:23.049Z,8.67
2023-02-23T15:45:42.702Z,9.77
2023-02-23T15:49:52.882Z,11.23
2023-02-23T15:54:06.332Z,9.67
2023-02-23T15:58:23.824Z,10.10
2023-02-23T16:02:32.594Z,9.10
2023-02-23T16:06:53.517Z,8.80
2023-02-23T16:11:05.326Z,8.20
2023-02-23T16:15:31.848Z,8.87
2023-02-23T16:19:41.316Z,10.30
2023-02-23T16:23:53.311Z,8.90
2023-02-23T16:28:10.225Z,9.00
2023-02-23T16:32:23.026Z,8.93
2023-02-23T16:36:39.964Z,8.23
2023-02-23T16:40:48.844Z,8.93
2023-02-23T16:44:58.392Z,8.23
2023-02-23T16:49:08.768Z,7.60
2023-02-23T16:53:17.482Z,9.03
2023-02-23T16:57:31.914Z,9.63
2023-02-23T17:01:40.476Z,9.10
2023-02-23T17:05:49.638Z,10.93
2023-02-23T17:09:58.934Z,9.10
2023-02-23T17:14:29.403Z,8.50
2023-02-23T17:18:42.787Z,9.50
2023-02-23T17:22:50.804Z,10.00
2023-02-23T17:27:18.751Z,7.93
2023-02-23T17:31:28.256Z,8.97
2023-02-23T17:35:37.497Z,9.50
2023-02-23T17:39:47.714Z,9.10
2023-02-23T17:43:56.260Z,9.03
2023-02-23T17:48:04.893Z,9.40
2023-02-23T17:52:13.457Z,9.10
2023-02-23T17:56:23.658Z,8.67
2023-02-23T18:00:34.006Z,8.40
2023-02-23T18:05:02.088Z,10.13
2023-02-23T18:09:23.154Z,9.03
2023-02-23T18:13:33.721Z,9.03
2023-02-23T18:17:42.276Z,7.50
2023-02-23T18:21:51.103Z,9.10
2023-02-23T18:26:08.211Z,8.20
2023-02-23T18:30:17.047Z,7.47
2023-02-23T18:34:27.480Z,9.20
2023-02-23T18:38:36.107Z,6.87
2023-02-23T18:42:44.736Z,7.67
2023-02-23T18:46:54.977Z,11.13
2023-02-23T18:51:06.645Z,11.40
2023-02-23T18:55:16.053Z,9.50
2023-02-23T18:59:24.679Z,10.70
2023-02-23T19:03:33.205Z,11.63
2023-02-23T19:07:42.512Z,8.83
2023-02-23T19:11:51.160Z,9.33
2023-02-23T19:16:02.799Z,8.27
2023-02-23T19:20:14.309Z,9.10
2023-02-23T19:24:22.865Z,8.07
2023-02-23T19:28:31.435Z,8.70
2023-02-23T19:32:40.359Z,9.70
2023-02-23T19:36:49.202Z,11.17
2023-02-23T19:40:58.141Z,11.07
2023-02-23T19:45:07.614Z,11.27
2023-02-23T19:49:17.321Z,10.20
2023-02-23T19:53:27.606Z,12.43
2023-02-23T19:57:36.130Z,11.73
2023-02-23T20:01:45.792Z,9.10
2023-02-23T20:06:06.758Z,8.40
2023-02-23T20:10:16.404Z,7.63
2023-02-23T20:14:25.095Z,5.17
2023-02-23T20:18:35.697Z,4.60
2023-02-23T20:22:44.908Z,4.20
2023-02-23T20:26:55.096Z,4.50
2023-02-23T20:31:04.656Z,5.70
2023-02-23T20:35:16.417Z,4.67
2023-02-23T20:39:26.945Z,6.37
2023-02-23T20:43:36.253Z,5.13
2023-02-23T20:47:50.508Z,4.70
2023-02-23T20:51:59.123Z,4.77
2023-02-23T20:56:09.882Z,3.50
2023-02-23T21:00:26.474Z,4.10
2023-02-23T21:04:38.368Z,3.47
2023-02-23T21:08:49.478Z,3.23
2023-02-23T21:12:58.371Z,5.10
2023-02-23T21:17:07.094Z,3.20
2023-02-23T21:21:16.529Z,4.13
2023-02-23T21:25:27.616Z,3.80
2023-02-23T21:29:36.450Z,3.60
2023-02-23T21:33:45.936Z,3.50
2023-02-23T21:37:54.630Z,4.13
2023-02-23T21:42:03.273Z,3.00
2023-02-23T21:46:14.502Z,3.60
2023-02-23T21:50:23.071Z,3.60
2023-02-23T21:54:31.580Z,4.03
2023-02-23T21:58:42.783Z,5.00
2023-02-23T22:02:52.089Z,4.37
2023-02-23T22:07:00.760Z,3.50
2023-02-23T22:11:10.842Z,3.40
2023-02-23T22:15:19.552Z,4.20
2023-02-23T22:19:28.187Z,3.70
2023-02-23T22:23:37.014Z,3.17
2023-02-23T22:27:45.642Z,4.70
2023-02-23T22:31:54.447Z,3.40
2023-02-23T22:36:06.662Z,3.97
2023-02-23T22:40:17.225Z,4.10
2023-02-23T22:44:25.867Z,4.53
2023-02-23T22:48:35.442Z,4.67
2023-02-23T22:52:43.932Z,3.70
2023-02-23T22:56:52.498Z,4.33
2023-02-23T23:01:04.848Z,3.43
2023-02-23T23:05:13.776Z,4.00
2023-02-23T23:09:22.472Z,6.00
2023-02-23T23:13:31.990Z,4.80
2023-02-23T23:17:42.156Z,4.87
2023-02-23T23:21:54.389Z,4.10
2023-02-23T23:26:23.425Z,3.27
2023-02-23T23:30:33.669Z,3.60
2023-02-23T23:34:42.200Z,4.50
2023-02-23T23:38:51.855Z,5.10
2023-02-23T23:43:01.889Z,3.70
2023-02-23T23:47:11.364Z,3.53
2023-02-23T23:51:20.754Z,3.00
2023-02-23T23:55:31.590Z,4.90
2023-02-23T23:59:41.904Z,3.57
